sensor_id;sensor_type;location;lat;lon;timestamp;temperature;humidity
83770;DHT22;73763;48.936;9.300;2023-11-19T00:01:48;7.60;95.60
83770;DHT22;73763;48.936;9.300;2023-11-19T00:04:14;7.60;95.60
83770;DHT22;73763;48.936;9.300;2023-11-19T00:06:39;7.60;95.70
83770;DHT22;73763;48.936;9.300;2023-11-19T00:09:05;7.60;95.70
83770;DHT22;73763;48.936;9.300;2023-11-19T00:11:30;7.70;95.60
83770;DHT22;73763;48.936;9.300;2023-11-19T00:13:56;7.70;95.70
83770;DHT22;73763;48.936;9.300;2023-11-19T00:16:21;7.70;95.80
83770;DHT22;73763;48.936;9.300;2023-11-19T00:18:47;7.70;95.90
83770;DHT22;73763;48.936;9.300;2023-11-19T00:21:12;7.70;95.90
83770;DHT22;73763;48.936;9.300;2023-11-19T00:23:38;7.70;96.00
83770;DHT22;73763;48.936;9.300;2023-11-19T00:26:04;7.80;96.10
83770;DHT22;73763;48.936;9.300;2023-11-19T00:28:29;7.80;96.20
83770;DHT22;73763;48.936;9.300;2023-11-19T00:30:55;7.80;96.30
83770;DHT22;73763;48.936;9.300;2023-11-19T00:33:20;7.90;96.30
83770;DHT22;73763;48.936;9.300;2023-11-19T00:35:46;7.80;96.20
83770;DHT22;73763;48.936;9.300;2023-11-19T00:38:11;7.90;96.30
83770;DHT22;73763;48.936;9.300;2023-11-19T00:40:37;7.90;96.30
83770;DHT22;73763;48.936;9.300;2023-11-19T00:43:02;8.00;96.30
83770;DHT22;73763;48.936;9.300;2023-11-19T00:45:28;8.00;96.30
83770;DHT22;73763;48.936;9.300;2023-11-19T00:47:53;8.00;96.30
83770;DHT22;73763;48.936;9.300;2023-11-19T00:50:19;8.10;96.30
83770;DHT22;73763;48.936;9.300;2023-11-19T00:52:44;8.10;96.30
83770;DHT22;73763;48.936;9.300;2023-11-19T00:55:10;8.10;96.30
83770;DHT22;73763;48.936;9.300;2023-11-19T00:57:35;8.10;96.30
83770;DHT22;73763;48.936;9.300;2023-11-19T01:00:01;8.10;96.30
83770;DHT22;73763;48.936;9.300;2023-11-19T01:02:27;8.10;96.30
83770;DHT22;73763;48.936;9.300;2023-11-19T01:04:52;8.10;96.30
83770;DHT22;73763;48.936;9.300;2023-11-19T01:07:18;8.10;96.40
83770;DHT22;73763;48.936;9.300;2023-11-19T01:09:44;8.10;96.40
83770;DHT22;73763;48.936;9.300;2023-11-19T01:12:09;8.10;96.40
83770;DHT22;73763;48.936;9.300;2023-11-19T01:14:35;8.10;96.40
83770;DHT22;73763;48.936;9.300;2023-11-19T01:17:01;8.10;96.50
83770;DHT22;73763;48.936;9.300;2023-11-19T01:19:26;8.20;96.50
83770;DHT22;73763;48.936;9.300;2023-11-19T01:21:52;8.10;96.60
83770;DHT22;73763;48.936;9.300;2023-11-19T01:24:17;8.20;96.70
83770;DHT22;73763;48.936;9.300;2023-11-19T01:26:44;8.20;96.80
83770;DHT22;73763;48.936;9.300;2023-11-19T01:29:09;8.20;96.80
83770;DHT22;73763;48.936;9.300;2023-11-19T01:31:35;8.20;96.80
83770;DHT22;73763;48.936;9.300;2023-11-19T01:34:00;8.20;96.90
83770;DHT22;73763;48.936;9.300;2023-11-19T01:36:26;8.20;96.90
83770;DHT22;73763;48.936;9.300;2023-11-19T01:38:51;8.20;96.90
83770;DHT22;73763;48.936;9.300;2023-11-19T01:41:17;8.30;96.90
83770;DHT22;73763;48.936;9.300;2023-11-19T01:43:42;8.30;96.90
83770;DHT22;73763;48.936;9.300;2023-11-19T01:46:08;8.30;96.90
83770;DHT22;73763;48.936;9.300;2023-11-19T01:48:34;8.30;96.90
83770;DHT22;73763;48.936;9.300;2023-11-19T01:51:00;8.40;96.90
83770;DHT22;73763;48.936;9.300;2023-11-19T01:53:26;8.40;96.90
83770;DHT22;73763;48.936;9.300;2023-11-19T01:55:52;8.40;96.90
83770;DHT22;73763;48.936;9.300;2023-11-19T01:58:18;8.50;96.90
83770;DHT22;73763;48.936;9.300;2023-11-19T02:00:44;8.50;96.90
83770;DHT22;73763;48.936;9.300;2023-11-19T02:03:10;8.60;96.90
83770;DHT22;73763;48.936;9.300;2023-11-19T02:05:37;8.60;96.90
83770;DHT22;73763;48.936;9.300;2023-11-19T02:08:04;8.60;96.80
83770;DHT22;73763;48.936;9.300;2023-11-19T02:10:29;8.70;96.90
83770;DHT22;73763;48.936;9.300;2023-11-19T02:12:55;8.70;96.90
83770;DHT22;73763;48.936;9.300;2023-11-19T02:15:20;8.70;96.90
83770;DHT22;73763;48.936;9.300;2023-11-19T02:17:46;8.70;96.90
83770;DHT22;73763;48.936;9.300;2023-11-19T02:20:11;8.70;96.90
83770;DHT22;73763;48.936;9.300;2023-11-19T02:22:37;8.80;96.90
83770;DHT22;73763;48.936;9.300;2023-11-19T02:25:10;8.90;96.90
83770;DHT22;73763;48.936;9.300;2023-11-19T02:27:53;8.80;97.30
83770;DHT22;73763;48.936;9.300;2023-11-19T02:30:18;8.90;96.90
83770;DHT22;73763;48.936;9.300;2023-11-19T02:32:44;8.90;96.90
83770;DHT22;73763;48.936;9.300;2023-11-19T02:35:09;8.90;96.80
83770;DHT22;73763;48.936;9.300;2023-11-19T02:37:35;8.90;96.80
83770;DHT22;73763;48.936;9.300;2023-11-19T02:40:00;8.90;96.80
83770;DHT22;73763;48.936;9.300;2023-11-19T02:42:26;8.90;96.80
83770;DHT22;73763;48.936;9.300;2023-11-19T02:44:51;8.90;96.90
83770;DHT22;73763;48.936;9.300;2023-11-19T02:47:17;8.90;96.90
83770;DHT22;73763;48.936;9.300;2023-11-19T02:49:42;9.00;96.90
83770;DHT22;73763;48.936;9.300;2023-11-19T02:52:08;9.00;96.80
83770;DHT22;73763;48.936;9.300;2023-11-19T02:54:33;9.00;96.70
83770;DHT22;73763;48.936;9.300;2023-11-19T02:56:59;9.00;96.80
83770;DHT22;73763;48.936;9.300;2023-11-19T02:59:24;9.00;96.80
83770;DHT22;73763;48.936;9.300;2023-11-19T03:01:50;9.00;96.80
83770;DHT22;73763;48.936;9.300;2023-11-19T03:04:15;9.00;96.80
83770;DHT22;73763;48.936;9.300;2023-11-19T03:06:41;9.00;96.90
83770;DHT22;73763;48.936;9.300;2023-11-19T03:09:06;9.00;96.90
83770;DHT22;73763;48.936;9.300;2023-11-19T03:11:32;9.10;96.90
83770;DHT22;73763;48.936;9.300;2023-11-19T03:13:57;9.00;97.00
83770;DHT22;73763;48.936;9.300;2023-11-19T03:16:23;9.10;96.90
83770;DHT22;73763;48.936;9.300;2023-11-19T03:18:48;9.00;96.90
83770;DHT22;73763;48.936;9.300;2023-11-19T03:21:13;9.00;97.00
83770;DHT22;73763;48.936;9.300;2023-11-19T03:23:39;9.00;97.10
83770;DHT22;73763;48.936;9.300;2023-11-19T03:26:04;9.00;97.10
83770;DHT22;73763;48.936;9.300;2023-11-19T03:28:30;9.00;96.90
83770;DHT22;73763;48.936;9.300;2023-11-19T03:30:55;9.00;96.70
83770;DHT22;73763;48.936;9.300;2023-11-19T03:33:21;8.90;96.60
83770;DHT22;73763;48.936;9.300;2023-11-19T03:35:46;8.90;96.80
83770;DHT22;73763;48.936;9.300;2023-11-19T03:38:12;8.80;96.90
83770;DHT22;73763;48.936;9.300;2023-11-19T03:40:37;8.80;97.00
83770;DHT22;73763;48.936;9.300;2023-11-19T03:43:03;8.90;97.30
83770;DHT22;73763;48.936;9.300;2023-11-19T03:45:28;9.00;97.40
83770;DHT22;73763;48.936;9.300;2023-11-19T03:47:54;9.00;97.50
83770;DHT22;73763;48.936;9.300;2023-11-19T03:50:19;9.00;97.60
83770;DHT22;73763;48.936;9.300;2023-11-19T03:52:46;9.00;97.60
83770;DHT22;73763;48.936;9.300;2023-11-19T03:55:11;9.00;97.60
83770;DHT22;73763;48.936;9.300;2023-11-19T03:57:37;9.10;97.60
83770;DHT22;73763;48.936;9.300;2023-11-19T04:00:02;9.10;97.70
83770;DHT22;73763;48.936;9.300;2023-11-19T04:02:28;9.20;97.80
83770;DHT22;73763;48.936;9.300;2023-11-19T04:04:54;9.20;97.80
83770;DHT22;73763;48.936;9.300;2023-11-19T04:07:20;9.20;97.80
83770;DHT22;73763;48.936;9.300;2023-11-19T04:09:45;9.20;97.80
83770;DHT22;73763;48.936;9.300;2023-11-19T04:12:11;9.20;97.80
83770;DHT22;73763;48.936;9.300;2023-11-19T04:14:36;9.20;97.80
83770;DHT22;73763;48.936;9.300;2023-11-19T04:17:02;9.20;97.90
83770;DHT22;73763;48.936;9.300;2023-11-19T04:19:27;9.20;97.90
83770;DHT22;73763;48.936;9.300;2023-11-19T04:21:53;9.30;97.90
83770;DHT22;73763;48.936;9.300;2023-11-19T04:24:18;9.30;97.90
83770;DHT22;73763;48.936;9.300;2023-11-19T04:26:45;9.30;97.90
83770;DHT22;73763;48.936;9.300;2023-11-19T04:29:15;9.30;98.00
83770;DHT22;73763;48.936;9.300;2023-11-19T04:31:41;9.30;98.00
83770;DHT22;73763;48.936;9.300;2023-11-19T04:34:07;9.30;98.00
83770;DHT22;73763;48.936;9.300;2023-11-19T04:36:33;9.40;98.00
83770;DHT22;73763;48.936;9.300;2023-11-19T04:39:00;9.40;98.00
83770;DHT22;73763;48.936;9.300;2023-11-19T04:41:26;9.40;98.00
83770;DHT22;73763;48.936;9.300;2023-11-19T04:43:51;9.40;98.00
83770;DHT22;73763;48.936;9.300;2023-11-19T04:46:17;9.40;98.10
83770;DHT22;73763;48.936;9.300;2023-11-19T04:48:42;9.50;98.10
83770;DHT22;73763;48.936;9.300;2023-11-19T04:51:08;9.50;98.10
83770;DHT22;73763;48.936;9.300;2023-11-19T04:53:33;9.50;98.10
83770;DHT22;73763;48.936;9.300;2023-11-19T04:55:59;9.50;98.00
83770;DHT22;73763;48.936;9.300;2023-11-19T04:58:24;9.50;98.00
83770;DHT22;73763;48.936;9.300;2023-11-19T05:00:50;9.50;98.10
83770;DHT22;73763;48.936;9.300;2023-11-19T05:03:16;9.50;98.10
83770;DHT22;73763;48.936;9.300;2023-11-19T05:05:41;9.60;98.10
83770;DHT22;73763;48.936;9.300;2023-11-19T05:08:07;9.60;98.10
83770;DHT22;73763;48.936;9.300;2023-11-19T05:10:32;9.60;97.90
83770;DHT22;73763;48.936;9.300;2023-11-19T05:12:58;9.60;97.80
83770;DHT22;73763;48.936;9.300;2023-11-19T05:15:23;9.60;97.80
83770;DHT22;73763;48.936;9.300;2023-11-19T05:17:49;9.70;97.80
83770;DHT22;73763;48.936;9.300;2023-11-19T05:20:14;9.70;97.80
83770;DHT22;73763;48.936;9.300;2023-11-19T05:22:41;9.70;97.70
83770;DHT22;73763;48.936;9.300;2023-11-19T05:25:06;9.80;97.60
83770;DHT22;73763;48.936;9.300;2023-11-19T05:27:32;9.80;97.50
83770;DHT22;73763;48.936;9.300;2023-11-19T05:29:58;9.80;97.50
83770;DHT22;73763;48.936;9.300;2023-11-19T05:32:23;9.80;97.50
83770;DHT22;73763;48.936;9.300;2023-11-19T05:34:49;9.80;97.50
83770;DHT22;73763;48.936;9.300;2023-11-19T05:37:14;9.80;97.50
83770;DHT22;73763;48.936;9.300;2023-11-19T05:39:40;9.80;97.50
83770;DHT22;73763;48.936;9.300;2023-11-19T05:42:05;9.80;97.50
83770;DHT22;73763;48.936;9.300;2023-11-19T05:44:31;9.90;97.50
83770;DHT22;73763;48.936;9.300;2023-11-19T05:46:56;9.90;97.30
83770;DHT22;73763;48.936;9.300;2023-11-19T05:49:22;9.90;97.20
83770;DHT22;73763;48.936;9.300;2023-11-19T05:51:47;9.90;97.10
83770;DHT22;73763;48.936;9.300;2023-11-19T05:54:13;9.90;97.10
83770;DHT22;73763;48.936;9.300;2023-11-19T05:56:38;9.90;97.10
83770;DHT22;73763;48.936;9.300;2023-11-19T05:59:04;10.00;97.10
83770;DHT22;73763;48.936;9.300;2023-11-19T06:01:29;9.90;97.20
83770;DHT22;73763;48.936;9.300;2023-11-19T06:03:55;10.00;97.20
83770;DHT22;73763;48.936;9.300;2023-11-19T06:06:20;9.90;97.10
83770;DHT22;73763;48.936;9.300;2023-11-19T06:08:46;9.90;97.10
83770;DHT22;73763;48.936;9.300;2023-11-19T06:11:12;10.00;97.10
83770;DHT22;73763;48.936;9.300;2023-11-19T06:13:37;10.00;97.20
83770;DHT22;73763;48.936;9.300;2023-11-19T06:16:03;10.00;97.30
83770;DHT22;73763;48.936;9.300;2023-11-19T06:18:29;10.00;97.30
83770;DHT22;73763;48.936;9.300;2023-11-19T06:20:54;10.10;97.30
83770;DHT22;73763;48.936;9.300;2023-11-19T06:23:20;10.10;97.30
83770;DHT22;73763;48.936;9.300;2023-11-19T06:25:45;10.10;97.30
83770;DHT22;73763;48.936;9.300;2023-11-19T06:28:11;10.10;97.30
83770;DHT22;73763;48.936;9.300;2023-11-19T06:30:36;10.10;97.30
83770;DHT22;73763;48.936;9.300;2023-11-19T06:33:02;10.20;97.30
83770;DHT22;73763;48.936;9.300;2023-11-19T06:35:27;10.30;97.30
83770;DHT22;73763;48.936;9.300;2023-11-19T06:37:53;10.30;97.20
83770;DHT22;73763;48.936;9.300;2023-11-19T06:40:18;10.30;97.20
83770;DHT22;73763;48.936;9.300;2023-11-19T06:42:44;10.30;97.10
83770;DHT22;73763;48.936;9.300;2023-11-19T06:45:09;10.40;97.10
83770;DHT22;73763;48.936;9.300;2023-11-19T06:47:35;10.40;97.10
83770;DHT22;73763;48.936;9.300;2023-11-19T06:50:00;10.40;97.00
83770;DHT22;73763;48.936;9.300;2023-11-19T06:52:26;10.50;96.90
83770;DHT22;73763;48.936;9.300;2023-11-19T06:54:51;10.40;97.20
83770;DHT22;73763;48.936;9.300;2023-11-19T06:57:17;10.40;96.70
83770;DHT22;73763;48.936;9.300;2023-11-19T06:59:42;10.50;97.00
83770;DHT22;73763;48.936;9.300;2023-11-19T07:02:08;10.50;96.60
83770;DHT22;73763;48.936;9.300;2023-11-19T07:04:33;10.40;96.50
83770;DHT22;73763;48.936;9.300;2023-11-19T07:06:59;10.50;96.70
83770;DHT22;73763;48.936;9.300;2023-11-19T07:09:25;10.40;96.70
83770;DHT22;73763;48.936;9.300;2023-11-19T07:11:50;10.40;96.70
83770;DHT22;73763;48.936;9.300;2023-11-19T07:14:16;10.40;96.70
83770;DHT22;73763;48.936;9.300;2023-11-19T07:16:43;10.40;96.60
83770;DHT22;73763;48.936;9.300;2023-11-19T07:19:08;10.40;96.50
83770;DHT22;73763;48.936;9.300;2023-11-19T07:21:34;10.50;96.70
83770;DHT22;73763;48.936;9.300;2023-11-19T07:24:00;10.50;96.70
83770;DHT22;73763;48.936;9.300;2023-11-19T07:26:26;10.60;96.70
83770;DHT22;73763;48.936;9.300;2023-11-19T07:28:52;10.60;96.60
83770;DHT22;73763;48.936;9.300;2023-11-19T07:31:17;10.60;96.70
83770;DHT22;73763;48.936;9.300;2023-11-19T07:33:43;10.60;96.70
83770;DHT22;73763;48.936;9.300;2023-11-19T07:36:09;10.70;96.70
83770;DHT22;73763;48.936;9.300;2023-11-19T07:38:35;10.60;96.70
83770;DHT22;73763;48.936;9.300;2023-11-19T07:41:01;10.70;96.70
83770;DHT22;73763;48.936;9.300;2023-11-19T07:43:26;10.70;96.50
83770;DHT22;73763;48.936;9.300;2023-11-19T07:45:52;10.80;96.40
83770;DHT22;73763;48.936;9.300;2023-11-19T07:48:17;10.80;96.30
83770;DHT22;73763;48.936;9.300;2023-11-19T07:50:43;10.70;96.20
83770;DHT22;73763;48.936;9.300;2023-11-19T07:53:08;10.70;96.20
83770;DHT22;73763;48.936;9.300;2023-11-19T07:55:34;10.70;96.30
83770;DHT22;73763;48.936;9.300;2023-11-19T07:58:00;10.70;96.30
83770;DHT22;73763;48.936;9.300;2023-11-19T08:00:25;10.70;96.30
83770;DHT22;73763;48.936;9.300;2023-11-19T08:02:51;10.80;96.30
83770;DHT22;73763;48.936;9.300;2023-11-19T08:05:16;10.80;96.30
83770;DHT22;73763;48.936;9.300;2023-11-19T08:07:42;10.80;96.30
83770;DHT22;73763;48.936;9.300;2023-11-19T08:10:07;10.90;96.40
83770;DHT22;73763;48.936;9.300;2023-11-19T08:12:33;10.90;96.30
83770;DHT22;73763;48.936;9.300;2023-11-19T08:14:59;10.90;96.20
83770;DHT22;73763;48.936;9.300;2023-11-19T08:17:24;10.90;96.20
83770;DHT22;73763;48.936;9.300;2023-11-19T08:19:51;11.00;96.00
83770;DHT22;73763;48.936;9.300;2023-11-19T08:22:16;11.10;95.90
83770;DHT22;73763;48.936;9.300;2023-11-19T08:24:42;11.30;95.50
83770;DHT22;73763;48.936;9.300;2023-11-19T08:27:07;11.30;95.40
83770;DHT22;73763;48.936;9.300;2023-11-19T08:29:33;11.30;95.30
83770;DHT22;73763;48.936;9.300;2023-11-19T08:32:01;11.40;95.30
83770;DHT22;73763;48.936;9.300;2023-11-19T08:34:27;11.40;95.10
83770;DHT22;73763;48.936;9.300;2023-11-19T08:36:52;11.50;95.30
83770;DHT22;73763;48.936;9.300;2023-11-19T08:39:18;11.50;94.90
83770;DHT22;73763;48.936;9.300;2023-11-19T08:41:43;11.50;94.80
83770;DHT22;73763;48.936;9.300;2023-11-19T08:44:09;11.50;94.80
83770;DHT22;73763;48.936;9.300;2023-11-19T08:46:34;11.50;94.90
83770;DHT22;73763;48.936;9.300;2023-11-19T08:48:59;11.50;95.20
83770;DHT22;73763;48.936;9.300;2023-11-19T08:51:25;11.50;95.00
83770;DHT22;73763;48.936;9.300;2023-11-19T08:53:51;11.40;95.10
83770;DHT22;73763;48.936;9.300;2023-11-19T08:56:16;11.40;95.30
83770;DHT22;73763;48.936;9.300;2023-11-19T08:58:41;11.40;95.50
83770;DHT22;73763;48.936;9.300;2023-11-19T09:01:07;11.50;95.50
83770;DHT22;73763;48.936;9.300;2023-11-19T09:03:32;11.50;95.60
83770;DHT22;73763;48.936;9.300;2023-11-19T09:05:58;11.60;95.30
83770;DHT22;73763;48.936;9.300;2023-11-19T09:08:25;11.80;95.20
83770;DHT22;73763;48.936;9.300;2023-11-19T09:10:50;11.80;95.20
83770;DHT22;73763;48.936;9.300;2023-11-19T09:13:16;12.00;95.20
83770;DHT22;73763;48.936;9.300;2023-11-19T09:15:41;12.00;95.00
83770;DHT22;73763;48.936;9.300;2023-11-19T09:18:07;12.10;94.80
83770;DHT22;73763;48.936;9.300;2023-11-19T09:20:32;12.10;95.00
83770;DHT22;73763;48.936;9.300;2023-11-19T09:22:58;12.20;95.00
83770;DHT22;73763;48.936;9.300;2023-11-19T09:25:23;12.20;94.80
83770;DHT22;73763;48.936;9.300;2023-11-19T09:27:49;12.30;94.60
83770;DHT22;73763;48.936;9.300;2023-11-19T09:30:14;12.30;94.70
83770;DHT22;73763;48.936;9.300;2023-11-19T09:32:40;12.30;94.40
83770;DHT22;73763;48.936;9.300;2023-11-19T09:35:06;12.40;94.20
83770;DHT22;73763;48.936;9.300;2023-11-19T09:37:31;12.30;94.50
83770;DHT22;73763;48.936;9.300;2023-11-19T09:39:57;12.30;94.20
83770;DHT22;73763;48.936;9.300;2023-11-19T09:42:24;12.40;94.20
83770;DHT22;73763;48.936;9.300;2023-11-19T09:44:49;12.40;94.20
83770;DHT22;73763;48.936;9.300;2023-11-19T09:47:17;12.30;93.70
83770;DHT22;73763;48.936;9.300;2023-11-19T09:49:44;12.30;93.50
83770;DHT22;73763;48.936;9.300;2023-11-19T09:52:10;12.30;93.40
83770;DHT22;73763;48.936;9.300;2023-11-19T09:54:35;12.30;93.50
83770;DHT22;73763;48.936;9.300;2023-11-19T09:57:03;12.30;93.60
83770;DHT22;73763;48.936;9.300;2023-11-19T09:59:30;12.40;93.90
83770;DHT22;73763;48.936;9.300;2023-11-19T10:01:56;12.50;94.10
83770;DHT22;73763;48.936;9.300;2023-11-19T10:04:22;12.90;92.60
83770;DHT22;73763;48.936;9.300;2023-11-19T10:06:49;13.30;91.90
83770;DHT22;73763;48.936;9.300;2023-11-19T10:09:15;13.40;90.30
83770;DHT22;73763;48.936;9.300;2023-11-19T10:11:40;13.50;90.30
83770;DHT22;73763;48.936;9.300;2023-11-19T10:14:06;14.00;90.20
83770;DHT22;73763;48.936;9.300;2023-11-19T10:16:34;14.10;89.10
83770;DHT22;73763;48.936;9.300;2023-11-19T10:19:00;14.20;88.70
83770;DHT22;73763;48.936;9.300;2023-11-19T10:21:26;14.60;88.20
83770;DHT22;73763;48.936;9.300;2023-11-19T10:23:55;14.70;88.30
83770;DHT22;73763;48.936;9.300;2023-11-19T10:26:21;14.60;87.30
83770;DHT22;73763;48.936;9.300;2023-11-19T10:28:47;14.30;87.20
83770;DHT22;73763;48.936;9.300;2023-11-19T10:31:14;14.00;87.80
83770;DHT22;73763;48.936;9.300;2023-11-19T10:33:40;13.80;87.90
83770;DHT22;73763;48.936;9.300;2023-11-19T10:36:06;13.70;88.30
83770;DHT22;73763;48.936;9.300;2023-11-19T10:38:31;13.70;89.00
83770;DHT22;73763;48.936;9.300;2023-11-19T10:40:57;13.70;87.80
83770;DHT22;73763;48.936;9.300;2023-11-19T10:43:23;13.60;87.60
83770;DHT22;73763;48.936;9.300;2023-11-19T10:45:49;13.70;85.50
83770;DHT22;73763;48.936;9.300;2023-11-19T10:48:15;13.70;85.30
83770;DHT22;73763;48.936;9.300;2023-11-19T10:50:42;13.90;85.80
83770;DHT22;73763;48.936;9.300;2023-11-19T10:53:12;14.70;82.30
83770;DHT22;73763;48.936;9.300;2023-11-19T10:55:38;15.80;77.00
83770;DHT22;73763;48.936;9.300;2023-11-19T10:58:05;16.90;74.50
83770;DHT22;73763;48.936;9.300;2023-11-19T11:00:52;18.30;70.00
83770;DHT22;73763;48.936;9.300;2023-11-19T11:03:24;19.30;62.90
83770;DHT22;73763;48.936;9.300;2023-11-19T11:05:52;18.80;62.50
83770;DHT22;73763;48.936;9.300;2023-11-19T11:08:19;17.90;65.20
83770;DHT22;73763;48.936;9.300;2023-11-19T11:10:49;18.00;64.50
83770;DHT22;73763;48.936;9.300;2023-11-19T11:13:18;17.80;64.60
83770;DHT22;73763;48.936;9.300;2023-11-19T11:15:45;16.70;67.40
83770;DHT22;73763;48.936;9.300;2023-11-19T11:18:10;15.90;70.50
83770;DHT22;73763;48.936;9.300;2023-11-19T11:20:36;16.50;70.20
83770;DHT22;73763;48.936;9.300;2023-11-19T11:28:41;18.40;60.00
83770;DHT22;73763;48.936;9.300;2023-11-19T11:37:34;16.90;64.20
83770;DHT22;73763;48.936;9.300;2023-11-19T11:40:02;16.10;67.80
83770;DHT22;73763;48.936;9.300;2023-11-19T11:42:34;16.40;69.80
83770;DHT22;73763;48.936;9.300;2023-11-19T11:45:04;17.10;66.40
83770;DHT22;73763;48.936;9.300;2023-11-19T11:50:18;17.00;64.20
83770;DHT22;73763;48.936;9.300;2023-11-19T11:55:35;18.40;63.20
83770;DHT22;73763;48.936;9.300;2023-11-19T11:58:01;20.40;58.00
83770;DHT22;73763;48.936;9.300;2023-11-19T12:00:30;21.20;53.40
83770;DHT22;73763;48.936;9.300;2023-11-19T12:02:57;20.80;53.10
83770;DHT22;73763;48.936;9.300;2023-11-19T12:05:23;20.80;54.70
83770;DHT22;73763;48.936;9.300;2023-11-19T12:08:02;21.10;53.60
83770;DHT22;73763;48.936;9.300;2023-11-19T12:10:33;19.90;55.40
83770;DHT22;73763;48.936;9.300;2023-11-19T12:13:01;18.10;59.40
83770;DHT22;73763;48.936;9.300;2023-11-19T12:15:29;17.00;65.30
83770;DHT22;73763;48.936;9.300;2023-11-19T12:17:55;17.30;65.00
83770;DHT22;73763;48.936;9.300;2023-11-19T12:20:25;17.30;65.40
83770;DHT22;73763;48.936;9.300;2023-11-19T12:22:51;16.90;67.30
83770;DHT22;73763;48.936;9.300;2023-11-19T12:25:18;16.50;68.30
83770;DHT22;73763;48.936;9.300;2023-11-19T12:27:53;15.90;67.00
83770;DHT22;73763;48.936;9.300;2023-11-19T12:30:25;15.70;70.30
83770;DHT22;73763;48.936;9.300;2023-11-19T12:32:52;16.00;69.10
83770;DHT22;73763;48.936;9.300;2023-11-19T12:35:18;16.10;67.30
83770;DHT22;73763;48.936;9.300;2023-11-19T12:37:45;17.10;66.30
83770;DHT22;73763;48.936;9.300;2023-11-19T12:40:18;17.60;62.80
83770;DHT22;73763;48.936;9.300;2023-11-19T12:42:51;17.00;63.70
83770;DHT22;73763;48.936;9.300;2023-11-19T12:45:17;16.60;65.10
83770;DHT22;73763;48.936;9.300;2023-11-19T12:47:43;17.40;62.90
83770;DHT22;73763;48.936;9.300;2023-11-19T12:50:10;18.30;59.70
83770;DHT22;73763;48.936;9.300;2023-11-19T12:52:36;18.70;56.00
83770;DHT22;73763;48.936;9.300;2023-11-19T12:55:03;18.50;56.10
83770;DHT22;73763;48.936;9.300;2023-11-19T12:57:41;18.80;56.10
83770;DHT22;73763;48.936;9.300;2023-11-19T13:00:17;18.40;56.90
83770;DHT22;73763;48.936;9.300;2023-11-19T13:02:48;17.80;56.90
83770;DHT22;73763;48.936;9.300;2023-11-19T13:07:51;16.60;61.30
83770;DHT22;73763;48.936;9.300;2023-11-19T13:10:17;16.50;60.90
83770;DHT22;73763;48.936;9.300;2023-11-19T13:12:43;16.90;60.50
83770;DHT22;73763;48.936;9.300;2023-11-19T13:15:23;17.30;59.10
83770;DHT22;73763;48.936;9.300;2023-11-19T13:17:48;17.10;60.40
83770;DHT22;73763;48.936;9.300;2023-11-19T13:20:14;17.30;60.50
83770;DHT22;73763;48.936;9.300;2023-11-19T13:22:57;17.40;60.70
83770;DHT22;73763;48.936;9.300;2023-11-19T13:25:22;17.60;59.10
83770;DHT22;73763;48.936;9.300;2023-11-19T13:27:48;17.50;58.20
83770;DHT22;73763;48.936;9.300;2023-11-19T13:30:14;17.50;59.30
83770;DHT22;73763;48.936;9.300;2023-11-19T13:32:40;17.40;59.30
83770;DHT22;73763;48.936;9.300;2023-11-19T13:35:06;17.40;59.00
83770;DHT22;73763;48.936;9.300;2023-11-19T13:37:32;17.70;58.40
83770;DHT22;73763;48.936;9.300;2023-11-19T13:39:57;18.60;56.80
83770;DHT22;73763;48.936;9.300;2023-11-19T13:42:23;19.00;53.40
83770;DHT22;73763;48.936;9.300;2023-11-19T13:44:48;18.90;54.20
83770;DHT22;73763;48.936;9.300;2023-11-19T13:47:14;19.20;53.90
83770;DHT22;73763;48.936;9.300;2023-11-19T13:49:39;19.50;52.50
83770;DHT22;73763;48.936;9.300;2023-11-19T13:52:05;19.50;52.10
83770;DHT22;73763;48.936;9.300;2023-11-19T13:54:31;19.50;51.90
83770;DHT22;73763;48.936;9.300;2023-11-19T13:56:56;20.10;51.20
83770;DHT22;73763;48.936;9.300;2023-11-19T13:59:22;19.80;50.60
83770;DHT22;73763;48.936;9.300;2023-11-19T14:01:47;19.80;50.10
83770;DHT22;73763;48.936;9.300;2023-11-19T14:04:13;19.60;50.30
83770;DHT22;73763;48.936;9.300;2023-11-19T14:06:38;19.80;50.30
83770;DHT22;73763;48.936;9.300;2023-11-19T14:09:06;19.90;49.80
83770;DHT22;73763;48.936;9.300;2023-11-19T14:11:31;19.40;50.60
83770;DHT22;73763;48.936;9.300;2023-11-19T14:13:57;19.20;50.90
83770;DHT22;73763;48.936;9.300;2023-11-19T14:16:26;19.10;51.50
83770;DHT22;73763;48.936;9.300;2023-11-19T14:18:52;18.60;52.20
83770;DHT22;73763;48.936;9.300;2023-11-19T14:21:17;18.70;53.20
83770;DHT22;73763;48.936;9.300;2023-11-19T14:23:43;18.40;52.80
83770;DHT22;73763;48.936;9.300;2023-11-19T14:26:08;18.40;53.10
83770;DHT22;73763;48.936;9.300;2023-11-19T14:28:34;18.60;53.10
83770;DHT22;73763;48.936;9.300;2023-11-19T14:30:59;18.50;50.70
83770;DHT22;73763;48.936;9.300;2023-11-19T14:33:25;18.00;51.90
83770;DHT22;73763;48.936;9.300;2023-11-19T14:51:54;16.40;54.50
83770;DHT22;73763;48.936;9.300;2023-11-19T14:54:20;15.70;56.50
83770;DHT22;73763;48.936;9.300;2023-11-19T14:56:45;15.20;58.30
83770;DHT22;73763;48.936;9.300;2023-11-19T14:59:11;14.80;59.50
83770;DHT22;73763;48.936;9.300;2023-11-19T15:01:36;14.50;60.30
83770;DHT22;73763;48.936;9.300;2023-11-19T15:04:02;14.40;60.80
83770;DHT22;73763;48.936;9.300;2023-11-19T15:06:27;14.20;61.40
83770;DHT22;73763;48.936;9.300;2023-11-19T15:08:53;14.20;61.80
83770;DHT22;73763;48.936;9.300;2023-11-19T15:11:19;14.10;62.70
83770;DHT22;73763;48.936;9.300;2023-11-19T15:13:44;14.00;63.50
83770;DHT22;73763;48.936;9.300;2023-11-19T15:16:10;13.80;64.20
83770;DHT22;73763;48.936;9.300;2023-11-19T15:18:35;13.80;64.80
83770;DHT22;73763;48.936;9.300;2023-11-19T15:21:01;13.70;64.90
83770;DHT22;73763;48.936;9.300;2023-11-19T15:23:26;13.60;65.30
83770;DHT22;73763;48.936;9.300;2023-11-19T15:25:52;13.50;65.90
83770;DHT22;73763;48.936;9.300;2023-11-19T15:28:17;13.40;66.50
83770;DHT22;73763;48.936;9.300;2023-11-19T15:30:43;13.40;66.60
83770;DHT22;73763;48.936;9.300;2023-11-19T15:33:08;13.30;66.70
83770;DHT22;73763;48.936;9.300;2023-11-19T15:35:34;13.20;67.30
83770;DHT22;73763;48.936;9.300;2023-11-19T15:38:00;13.10;68.00
83770;DHT22;73763;48.936;9.300;2023-11-19T15:40:26;13.10;68.80
83770;DHT22;73763;48.936;9.300;2023-11-19T15:42:51;12.90;69.00
83770;DHT22;73763;48.936;9.300;2023-11-19T15:45:17;12.80;69.40
83770;DHT22;73763;48.936;9.300;2023-11-19T15:47:42;12.80;69.40
83770;DHT22;73763;48.936;9.300;2023-11-19T15:50:08;12.90;69.00
83770;DHT22;73763;48.936;9.300;2023-11-19T15:52:35;12.90;69.30
83770;DHT22;73763;48.936;9.300;2023-11-19T15:55:00;12.80;70.60
83770;DHT22;73763;48.936;9.300;2023-11-19T15:57:26;12.70;71.00
83770;DHT22;73763;48.936;9.300;2023-11-19T15:59:51;12.50;70.80
83770;DHT22;73763;48.936;9.300;2023-11-19T16:02:17;12.60;71.00
83770;DHT22;73763;48.936;9.300;2023-11-19T16:04:43;12.50;71.30
83770;DHT22;73763;48.936;9.300;2023-11-19T16:07:08;12.50;71.40